Skip Navigation Links
NOAA logo - Click to go to the NOAA homepage
NOAA's National Weather Service
Alaska Aviation Weather Unit
  NWS logo - Click to go to the NWS homepage
Left Navbar Graphic     10 AKDT = 18 GMT

   
NOAA is celebrating 200 years of science, service, and stewardship. Visit the NOAA 200th celebration Web site to learn more.
USA.gov is the U.S. Government's official Web portal to all Federal, state and local government Web resources and services.
Facebook
NWS on Facebook

Important Change Regarding the AAWU Web Presence

 

Over the last several months, the AAWU has been working to navigate its webpages to a nationally supported server. Security, as well as other needs, have necessitated the change.  We have been given an extension for the site changeover while we diligently work at addressing feedback received. As of July 14, 2017, aawu.arh.noaa.gov will be discontinued. The new AAWU web address is weather.gov/aawu. It is now live and will run in-parallel with the old site until it is discontinued on July 14, 2017. Please continue to send any feedback or questions regarding the new webpages to nws.ar.aawu.webauthors@noaa.gov.  Thank you for your patience during this time of transition.
AAWU Home :: Display TAF Add Bookmark
METAR PAJZ 261256Z AUTO 04003KT 8SM BKN049 OVC065 04/03 A2983 RMK
 AO2 SLP108 T00440028 $=

METAR PAJZ 261356Z AUTO 00000KT 9SM CLR 04/02 A2982 RMK AO2 SLP104
 T00390017 $=

METAR PAJZ 261456Z AUTO 33004KT 9SM CLR 03/02 A2981 RMK AO2 SLP102
 T00280017 56008 $=

METAR PAJZ 261556Z AUTO 36006KT 9SM CLR 03/02 A2980 RMK AO2 SLP100
     T00330017 $=

METAR PAJZ 261656Z AUTO 35005KT 7SM CLR 04/02 A2981 RMK AO2 SLP100
     T00390017 $=

METAR PAJZ 261756Z AUTO 36003KT 7SM SCT060 07/03 A2980 RMK AO2
 SLP099 T00720028 10072 20028 56003 $=


NOAA's National Weather Service
Alaska Aviation Weather Unit
6930 Sand Lake Road
Anchorage, AK 99502-1845
Disclaimer
Credits
Glossary
Privacy Policy
About Us
Career Opportunities
Contact AAWU Internet Services Site last modified: April, 17th 2012